Time;durP1;ratioP1;P1;durP2;ratioP2;P2;SDS_P1;SDS_P2;PMS_P1;PMS_P2;Temp;Humidity;BMP_temperature;BMP_pressure;BME280_temperature;BME280_humidity;BME280_pressure;Samples;Min_cycle;Max_cycle;Signal;HPM_P1;HPM_P2
2022/06/17 00:01:25;;;;;;;;;;;;;;;19.16;68.89;100873.59;5057206;28;1367;-96
2022/06/17 00:03:52;;;;;;;;;;;;;;;19.14;68.76;100870.31;5057109;28;1302;-96
2022/06/17 00:06:18;;;;;;;;;;;;;;;19.12;68.95;100870.59;5056726;28;1668;-96
2022/06/17 00:08:45;;;;;;;;;;;;;;;19.12;68.48;100872.47;5073777;28;1206;-96
2022/06/17 00:11:11;;;;;;;;;;;;;;;19.12;68.95;100877.94;5072210;28;2177;-96
2022/06/17 00:13:38;;;;;;;;;;;;;;;19.10;68.95;100875.50;5057280;28;2570;-96
2022/06/17 00:16:05;;;;;;;;;;;;;;;19.10;68.85;100877.41;5038082;28;2029;-96
2022/06/17 00:18:31;;;;;;;;;;;;;;;19.08;68.58;100877.66;5053610;28;1169;-96
2022/06/17 00:20:58;;;;;;;;;;;;;;;19.07;68.81;100889.69;5055151;28;1194;-96
2022/06/17 00:23:24;;;;;;;;;;;;;;;19.06;68.53;100882.59;5055122;28;2686;-96
2022/06/17 00:25:51;;;;;;;;;;;;;;;19.05;68.44;100889.13;5072129;28;2008;-96
2022/06/17 00:28:17;;;;;;;;;;;;;;;19.03;68.44;100892.13;5047956;28;1358;-96
2022/06/17 00:30:46;;;;;;;;;;;;;;;19.02;68.76;100890.47;5071609;28;2169;-96
2022/06/17 00:33:13;;;;;;;;;;;;;;;19.02;68.53;100892.38;5055189;28;2305;-96
2022/06/17 00:35:39;;;;;;;;;;;;;;;19.00;68.45;100887.22;5073348;28;1143;-96
2022/06/17 00:38:06;;;;;;;;;;;;;;;18.98;68.74;100892.09;5073503;28;1207;-96
2022/06/17 00:40:33;;;;;;;;;;;;;;;18.97;68.67;100885.03;5073248;28;1416;-96
2022/06/17 00:42:59;;;;;;;;;;;;;;;18.97;68.60;100885.03;5072919;28;2545;-96
2022/06/17 00:45:26;;;;;;;;;;;;;;;18.96;68.51;100894.28;5054971;28;2068;-96
2022/06/17 00:47:52;;;;;;;;;;;;;;;18.94;68.28;100893.75;5056405;28;1240;-96
2022/06/17 00:50:19;;;;;;;;;;;;;;;18.94;68.39;100892.91;5056256;28;1223;-96
2022/06/17 00:52:45;;;;;;;;;;;;;;;18.93;68.62;100905.72;5054944;28;1910;-96
2022/06/17 00:55:12;;;;;;;;;;;;;;;18.93;68.30;100903.00;5056167;28;1179;-96
2022/06/17 00:57:38;;;;;;;;;;;;;;;18.91;68.50;100913.34;5056099;28;1357;-96
2022/06/17 01:00:06;;;;;;;;;;;;;;;18.90;68.42;100909.00;5051450;28;2131;-96
2022/06/17 01:02:33;;;;;;;;;;;;;;;18.89;68.43;100918.28;5072753;28;1587;-96
2022/06/17 01:04:59;;;;;;;;;;;;;;;18.89;68.35;100912.81;5055949;28;1187;-96
2022/06/17 01:07:26;;;;;;;;;;;;;;;18.86;68.38;100910.63;5072204;28;1223;-96
2022/06/17 01:09:57;;;;;;;;;;;;;;;18.87;68.46;100914.97;5072714;28;1239;-96
2022/06/17 01:12:24;;;;;;;;;;;;;;;18.84;68.32;100905.41;5072257;28;2419;-96
2022/06/17 01:14:50;;;;;;;;;;;;;;;18.83;68.34;100905.69;5055036;28;2155;-96
2022/06/17 01:17:18;;;;;;;;;;;;;;;18.82;68.03;100899.44;5072590;28;1724;-96
2022/06/17 01:19:44;;;;;;;;;;;;;;;18.81;68.26;100902.41;5055630;28;1152;-96
2022/06/17 01:22:11;;;;;;;;;;;;;;;18.80;67.83;100904.31;5065566;28;2411;-96
2022/06/17 01:24:37;;;;;;;;;;;;;;;18.79;68.09;100918.22;5052282;28;2182;-96
2022/06/17 01:27:04;;;;;;;;;;;;;;;18.78;68.03;100911.94;5072174;28;1314;-96
2022/06/17 01:29:32;;;;;;;;;;;;;;;18.77;67.98;100904.03;5053321;28;2234;-96
2022/06/17 01:31:59;;;;;;;;;;;;;;;18.75;67.91;100898.84;5069972;28;2229;-96
2022/06/17 01:34:25;;;;;;;;;;;;;;;18.75;68.13;100903.47;5072484;28;1219;-96
2022/06/17 01:36:52;;;;;;;;;;;;;;;18.74;68.02;100893.66;5069663;28;2068;-96
2022/06/17 01:39:19;;;;;;;;;;;;;;;18.73;68.08;100891.97;5054494;28;1953;-96
2022/06/17 01:41:45;;;;;;;;;;;;;;;18.71;68.05;100875.88;5055190;28;1308;-96
2022/06/17 01:44:12;;;;;;;;;;;;;;;18.68;68.09;100876.41;5061873;28;2282;-96
2022/06/17 01:46:38;;;;;;;;;;;;;;;18.68;67.82;100879.13;5055599;28;1237;-94
2022/06/17 01:49:05;;;;;;;;;;;;;;;18.67;67.83;100877.47;5052313;28;1940;-94
2022/06/17 01:51:32;;;;;;;;;;;;;;;18.66;67.78;100870.38;5060815;28;2601;-94
2022/06/17 01:53:58;;;;;;;;;;;;;;;18.64;68.02;100872.56;5037767;28;1991;-95
2022/06/17 01:56:26;;;;;;;;;;;;;;;18.64;67.71;100878.00;5069296;28;2085;-94
2022/06/17 01:58:53;;;;;;;;;;;;;;;18.61;67.66;100873.91;5053792;28;2057;-94
2022/06/17 02:01:21;;;;;;;;;;;;;;;18.60;68.03;100863.28;5055286;28;1395;-95
2022/06/17 02:03:47;;;;;;;;;;;;;;;18.59;67.54;100862.44;5051778;28;2048;-94
2022/06/17 02:06:14;;;;;;;;;;;;;;;18.58;67.57;100863.53;5054477;28;1305;-95
2022/06/17 02:08:40;;;;;;;;;;;;;;;18.56;67.70;100863.00;5071430;28;2556;-95
2022/06/17 02:11:07;;;;;;;;;;;;;;;18.55;68.01;100864.06;5054985;28;1202;-94
2022/06/17 02:13:33;;;;;;;;;;;;;;;18.54;67.79;100872.50;5068350;28;2268;-95
2022/06/17 02:16:00;;;;;;;;;;;;;;;18.53;67.43;100879.88;5074591;28;1349;-94
2022/06/17 02:18:27;;;;;;;;;;;;;;;18.52;67.64;100867.31;5073754;28;1413;-94
2022/06/17 02:20:53;;;;;;;;;;;;;;;18.52;67.74;100871.94;5068471;28;1239;-94
2022/06/17 02:23:22;;;;;;;;;;;;;;;18.49;67.52;100865.13;5070331;28;1949;-95
2022/06/17 02:25:48;;;;;;;;;;;;;;;18.50;67.70;100874.13;5054465;28;1175;-94
2022/06/17 02:28:16;;;;;;;;;;;;;;;18.47;67.68;100870.03;5041758;28;2314;-94
2022/06/17 02:30:42;;;;;;;;;;;;;;;18.47;67.56;100871.91;5053471;28;2132;-94
2022/06/17 02:33:09;;;;;;;;;;;;;;;18.45;67.56;100879.56;5053191;28;1978;-95
2022/06/17 02:35:35;;;;;;;;;;;;;;;18.45;67.61;100879.56;5071402;28;1293;-94
2022/06/17 02:38:02;;;;;;;;;;;;;;;18.43;67.63;100865.34;5069865;28;2209;-95
2022/06/17 02:40:28;;;;;;;;;;;;;;;18.41;67.24;100862.88;5054465;28;1179;-94
2022/06/17 02:42:55;;;;;;;;;;;;;;;18.40;67.37;100858.53;5054115;28;1190;-94
2022/06/17 02:45:21;;;;;;;;;;;;;;;18.39;67.43;100865.06;5053226;28;2199;-96
2022/06/17 02:47:48;;;;;;;;;;;;;;;18.37;67.18;100864.50;5043911;28;2618;-95
2022/06/17 02:50:14;;;;;;;;;;;;;;;18.37;67.41;100865.31;5050845;28;1293;-94
2022/06/17 02:52:41;;;;;;;;;;;;;;;18.35;67.38;100872.97;5057414;28;1965;-94
2022/06/17 02:55:07;;;;;;;;;;;;;;;18.34;67.35;100876.75;5069478;28;1928;-94
2022/06/17 02:57:34;;;;;;;;;;;;;;;18.32;67.25;100870.78;5052198;28;2091;-94
2022/06/17 03:00:01;;;;;;;;;;;;;;;18.32;67.44;100883.56;5065467;28;2170;-94
2022/06/17 03:02:28;;;;;;;;;;;;;;;18.31;67.18;100884.66;5069239;28;1353;-95
2022/06/17 03:04:54;;;;;;;;;;;;;;;18.29;67.19;100884.91;5069728;28;2066;-95
2022/06/17 03:07:20;;;;;;;;;;;;;;;18.28;67.20;100877.81;5070731;28;2612;-95
2022/06/17 03:09:47;;;;;;;;;;;;;;;18.27;67.12;100873.47;5051471;28;1232;-94
2022/06/17 03:12:14;;;;;;;;;;;;;;;18.25;67.47;100878.34;5038066;28;1914;-95
2022/06/17 03:14:40;;;;;;;;;;;;;;;18.24;66.95;100879.44;5052357;28;2136;-95
2022/06/17 03:17:07;;;;;;;;;;;;;;;18.23;67.40;100872.31;5037030;28;2286;-94
2022/06/17 03:19:35;;;;;;;;;;;;;;;18.22;67.11;100870.69;5039384;28;1229;-94
2022/06/17 03:22:02;;;;;;;;;;;;;;;18.21;67.05;100871.78;5069944;28;2131;-95
2022/06/17 03:24:28;;;;;;;;;;;;;;;18.19;67.37;100871.22;5053879;28;1303;-95
2022/06/17 03:26:55;;;;;;;;;;;;;;;18.19;67.08;100867.69;5047628;28;2641;-95
2022/06/17 03:29:22;;;;;;;;;;;;;;;18.18;67.12;100869.59;5042339;28;2129;-94
2022/06/17 03:31:48;;;;;;;;;;;;;;;18.15;67.01;100872.84;5058743;28;1023;-94
2022/06/17 03:34:14;;;;;;;;;;;;;;;18.15;67.04;100870.94;5057482;28;1974;-95
2022/06/17 03:36:41;;;;;;;;;;;;;;;18.14;67.18;100869.25;5071462;28;2098;-94
2022/06/17 03:39:08;;;;;;;;;;;;;;;18.12;66.94;100874.19;5057381;28;1477;-94
2022/06/17 03:41:34;;;;;;;;;;;;;;;18.12;66.96;100878.81;5057623;28;1300;-94
2022/06/17 03:44:01;;;;;;;;;;;;;;;18.10;67.14;100876.34;5043101;28;2262;-95
2022/06/17 03:46:28;;;;;;;;;;;;;;;18.08;67.19;100870.31;5057660;28;1727;-94
2022/06/17 03:48:54;;;;;;;;;;;;;;;18.07;66.91;100868.69;5057432;28;1293;-94
2022/06/17 03:51:21;;;;;;;;;;;;;;;18.06;66.91;100861.59;5074159;28;1389;-94
2022/06/17 03:53:48;;;;;;;;;;;;;;;18.05;67.12;100856.41;5073211;28;2063;-94
2022/06/17 03:56:14;;;;;;;;;;;;;;;18.05;66.84;100854.50;5088970;28;2510;-93
2022/06/17 03:58:41;;;;;;;;;;;;;;;18.02;67.05;100855.00;5053873;28;1184;-94
2022/06/17 04:01:07;;;;;;;;;;;;;;;18.00;66.83;100859.94;5055616;28;2102;-94
2022/06/17 04:03:34;;;;;;;;;;;;;;;18.01;66.91;100858.84;5056991;28;1303;-95
2022/06/17 04:06:00;;;;;;;;;;;;;;;18.00;67.04;100859.09;5074027;28;1427;-96
2022/06/17 04:08:27;;;;;;;;;;;;;;;17.99;66.95;100858.25;5057244;28;1287;-94
2022/06/17 04:10:53;;;;;;;;;;;;;;;17.97;67.08;100865.91;5057596;28;2024;-94
2022/06/17 04:13:20;;;;;;;;;;;;;;;17.97;66.91;100865.91;5043950;28;1973;-93
2022/06/17 04:15:47;;;;;;;;;;;;;;;17.96;66.74;100868.88;5049396;28;2299;-94
2022/06/17 04:18:13;;;;;;;;;;;;;;;17.95;66.97;100872.69;5073563;28;1214;-94
2022/06/17 04:20:40;;;;;;;;;;;;;;;17.94;66.97;100882.75;5073622;28;1340;-94
2022/06/17 04:23:06;;;;;;;;;;;;;;;17.94;66.81;100877.28;5057095;28;1253;-94
2022/06/17 04:25:33;;;;;;;;;;;;;;;17.93;66.85;100878.38;5073330;28;1373;-94
2022/06/17 04:28:02;;;;;;;;;;;;;;;17.91;66.88;100877.81;5039226;28;1325;-93
2022/06/17 04:30:29;;;;;;;;;;;;;;;17.89;66.69;100883.53;5061423;28;1930;-95
2022/06/17 04:32:55;;;;;;;;;;;;;;;17.89;66.70;100888.19;5041769;28;1973;-94
2022/06/17 04:35:22;;;;;;;;;;;;;;;17.87;66.67;100888.41;5051785;28;2290;-94
2022/06/17 04:37:49;;;;;;;;;;;;;;;17.87;66.51;100887.59;5073405;28;1301;-94
2022/06/17 04:40:15;;;;;;;;;;;;;;;17.86;66.58;100900.41;5061341;28;2138;-94
2022/06/17 04:42:42;;;;;;;;;;;;;;;17.85;66.49;100901.50;5042376;28;2176;-94
2022/06/17 04:45:09;;;;;;;;;;;;;;;17.84;66.72;100888.94;5051225;28;1165;-94
2022/06/17 04:47:35;;;;;;;;;;;;;;;17.84;66.56;100890.84;5036549;28;1304;-94
2022/06/17 04:50:02;;;;;;;;;;;;;;;17.82;66.67;100899.25;5036575;28;1308;-94
2022/06/17 04:52:28;;;;;;;;;;;;;;;17.82;66.67;100895.72;5036592;28;1914;-95
2022/06/17 04:54:55;;;;;;;;;;;;;;;17.80;66.59;100887.81;5047343;28;2602;-94
2022/06/17 04:57:21;;;;;;;;;;;;;;;17.80;66.71;100890.56;5087190;28;1363;-94
2022/06/17 04:59:48;;;;;;;;;;;;;;;17.80;66.51;100897.91;5068314;28;2099;-94
2022/06/17 05:02:14;;;;;;;;;;;;;;;17.78;66.38;100892.69;5076093;28;1342;-95
2022/06/17 05:04:41;;;;;;;;;;;;;;;17.78;66.33;100892.69;5075026;28;1851;-94
2022/06/17 05:07:08;;;;;;;;;;;;;;;17.77;66.69;100893.75;5093294;28;1208;-94
2022/06/17 05:09:34;;;;;;;;;;;;;;;17.75;66.72;100895.91;5092923;28;1284;-94
2022/06/17 05:12:01;;;;;;;;;;;;;;;17.75;66.44;100890.47;5073745;28;1488;-95
2022/06/17 05:14:27;;;;;;;;;;;;;;;17.75;66.46;100893.19;5057356;28;2071;-95
2022/06/17 05:16:54;;;;;;;;;;;;;;;17.73;66.48;100887.16;5047269;28;2073;-94
2022/06/17 05:19:21;;;;;;;;;;;;;;;17.73;66.44;100883.63;5074303;28;1996;-95
2022/06/17 05:21:47;;;;;;;;;;;;;;;17.72;66.33;100885.53;5058384;28;2072;-94
2022/06/17 05:24:14;;;;;;;;;;;;;;;17.71;66.54;100875.75;5059029;28;1187;-94
2022/06/17 05:26:40;;;;;;;;;;;;;;;17.70;66.58;100866.72;5050144;28;1439;-95
2022/06/17 05:29:08;;;;;;;;;;;;;;;17.69;66.46;100867.00;5065535;28;2130;-96
2022/06/17 05:31:35;;;;;;;;;;;;;;;17.69;66.48;100872.44;5071603;28;2662;-95
2022/06/17 05:34:02;;;;;;;;;;;;;;;17.70;66.27;100877.63;5055445;28;1988;-94
2022/06/17 05:36:29;;;;;;;;;;;;;;;17.68;66.50;100879.78;5060034;28;4474;-94
2022/06/17 05:38:55;;;;;;;;;;;;;;;17.68;66.49;100879.78;5054227;28;1378;-95
2022/06/17 05:41:23;;;;;;;;;;;;;;;17.69;66.30;100880.63;5054411;28;2306;-95
2022/06/17 05:43:49;;;;;;;;;;;;;;;17.68;66.31;100882.53;5062961;28;2417;-96
2022/06/17 05:46:16;;;;;;;;;;;;;;;17.67;66.39;100877.31;5056850;28;2547;-94
2022/06/17 05:48:42;;;;;;;;;;;;;;;17.66;66.47;100864.78;5072632;28;1300;-95
2022/06/17 05:51:09;;;;;;;;;;;;;;;17.66;66.42;100873.78;5071613;28;2792;-95
2022/06/17 05:53:36;;;;;;;;;;;;;;;17.65;66.45;100863.97;5057806;28;1914;-94
2022/06/17 05:56:02;;;;;;;;;;;;;;;17.65;66.15;100868.59;5074662;28;1377;-96
2022/06/17 05:58:29;;;;;;;;;;;;;;;17.65;66.35;100863.97;5074743;28;1148;-94
2022/06/17 06:00:55;;;;;;;;;;;;;;;17.65;66.39;100863.16;5054296;28;2522;-95
2022/06/17 06:03:22;;;;;;;;;;;;;;;17.62;66.19;100861.78;5044959;28;1324;-94
2022/06/17 06:05:48;;;;;;;;;;;;;;;17.62;66.27;100867.22;5072729;28;1341;-95
2022/06/17 06:08:15;;;;;;;;;;;;;;;17.62;66.29;100864.50;5078212;28;1322;-94
2022/06/17 06:10:43;;;;;;;;;;;;;;;17.62;66.26;100856.31;5062314;28;4336;-96
2022/06/17 06:13:09;;;;;;;;;;;;;;;17.63;66.46;100854.41;5072914;28;2143;-96
2022/06/17 06:15:38;;;;;;;;;;;;;;;17.62;66.21;100863.69;5040162;28;1268;-96
2022/06/17 06:18:05;;;;;;;;;;;;;;;17.61;66.23;100860.09;5054296;28;2415;-96
2022/06/17 06:20:31;;;;;;;;;;;;;;;17.61;66.28;100862.00;5051150;28;2578;-96
2022/06/17 06:22:58;;;;;;;;;;;;;;;17.60;66.05;100855.75;5051082;28;2312;-96
2022/06/17 06:25:25;;;;;;;;;;;;;;;17.59;66.20;100851.41;5067373;28;2248;-96
2022/06/17 06:27:51;;;;;;;;;;;;;;;17.60;66.24;100847.59;5054790;28;1316;-95
2022/06/17 06:30:18;;;;;;;;;;;;;;;17.60;66.17;100852.22;5055556;28;2362;-95
2022/06/17 06:32:44;;;;;;;;;;;;;;;17.58;66.01;100852.47;5044136;28;2416;-96
2022/06/17 06:35:11;;;;;;;;;;;;;;;17.58;65.85;100849.72;5075324;28;1906;-96
2022/06/17 06:37:37;;;;;;;;;;;;;;;17.58;66.10;100852.47;5053003;28;5238;-96
2022/06/17 06:40:04;;;;;;;;;;;;;;;17.58;65.85;100848.91;5069331;28;1811;-96
2022/06/17 06:42:30;;;;;;;;;;;;;;;17.57;65.82;100837.22;5072710;28;2324;-96
2022/06/17 06:44:57;;;;;;;;;;;;;;;17.57;65.97;100839.13;5063307;28;1286;-96
2022/06/17 06:47:23;;;;;;;;;;;;;;;17.56;65.85;100843.75;5074562;28;2545;-96
2022/06/17 06:49:50;;;;;;;;;;;;;;;17.56;65.73;100841.03;5039708;28;1429;-96
2022/06/17 06:52:16;;;;;;;;;;;;;;;17.56;65.93;100837.44;5037373;28;1235;-96
2022/06/17 06:54:43;;;;;;;;;;;;;;;17.56;66.07;100846.47;5047118;28;1914;-95
2022/06/17 06:57:09;;;;;;;;;;;;;;;17.56;65.92;100838.31;5057527;28;1180;-96
2022/06/17 06:59:35;;;;;;;;;;;;;;;17.57;65.90;100830.94;5054034;28;1359;-96
2022/06/17 07:02:02;;;;;;;;;;;;;;;17.57;65.97;100845.38;5037435;28;1152;-96
2022/06/17 07:04:28;;;;;;;;;;;;;;;17.56;65.95;100841.03;5039080;28;1249;-96
2022/06/17 07:06:55;;;;;;;;;;;;;;;17.56;65.66;100838.31;5057297;28;1258;-96
2022/06/17 07:09:22;;;;;;;;;;;;;;;17.57;65.97;100844.56;5057101;28;1179;-96
2022/06/17 07:11:48;;;;;;;;;;;;;;;17.57;65.86;100841.84;5057161;28;1271;-96
2022/06/17 07:14:15;;;;;;;;;;;;;;;17.56;65.71;100838.31;5075483;28;1910;-96
2022/06/17 07:16:41;;;;;;;;;;;;;;;17.56;65.65;100838.31;5077351;28;1316;-96
2022/06/17 07:19:10;;;;;;;;;;;;;;;17.56;65.64;100829.28;5075448;28;1290;-95
2022/06/17 07:21:36;;;;;;;;;;;;;;;17.58;65.85;100832.56;5057051;28;1304;-96
2022/06/17 07:24:03;;;;;;;;;;;;;;;17.58;65.69;100838.03;5057072;28;1342;-96
2022/06/17 07:26:30;;;;;;;;;;;;;;;17.56;65.93;100827.41;5057135;28;1195;-95
2022/06/17 07:28:56;;;;;;;;;;;;;;;17.57;65.92;100830.94;5073947;28;1247;-96
2022/06/17 07:31:23;;;;;;;;;;;;;;;17.58;65.73;100832.56;5056742;28;1167;-95
2022/06/17 07:33:49;;;;;;;;;;;;;;;17.57;65.80;100828.22;5073488;28;1902;-96
2022/06/17 07:39:53;;;;;;;;;;;;;;;17.57;65.53;100828.22;5074079;28;1537;-96
2022/06/17 07:41:49;;;;;;;;;;;;;;;17.58;65.65;100827.13;5057107;28;1303;-96
2022/06/17 07:44:17;;;;;;;;;;;;;;;17.56;65.62;100827.41;5074015;28;1308;-95
2022/06/17 07:46:43;;;;;;;;;;;;;;;17.57;65.44;100831.75;5073397;28;1179;-96
2022/06/17 07:49:10;;;;;;;;;;;;;;;17.57;65.61;100826.31;5057160;28;1285;-95
2022/06/17 07:51:37;;;;;;;;;;;;;;;17.58;65.66;100825.22;5056954;28;1328;-95
2022/06/17 07:54:03;;;;;;;;;;;;;;;17.58;65.63;100821.69;5073401;28;1958;-96
2022/06/17 07:56:30;;;;;;;;;;;;;;;17.60;65.45;100825.78;5073212;28;1383;-96
2022/06/17 07:58:57;;;;;;;;;;;;;;;17.59;65.54;100816.00;5082483;28;1238;-96
2022/06/17 08:01:24;;;;;;;;;;;;;;;17.60;65.53;100816.81;5057096;28;1199;-96
2022/06/17 08:03:50;;;;;;;;;;;;;;;17.60;65.63;100817.63;5056406;28;1160;-95
2022/06/17 08:06:18;;;;;;;;;;;;;;;17.60;65.48;100814.09;5073648;28;1308;-95
2022/06/17 08:08:44;;;;;;;;;;;;;;;17.59;65.41;100810.53;5070432;28;1089;-96
2022/06/17 08:11:11;;;;;;;;;;;;;;;17.60;65.55;100809.47;5043019;28;1360;-96
2022/06/17 08:13:37;;;;;;;;;;;;;;;17.61;65.34;100811.09;5056720;28;1985;-96
2022/06/17 08:16:05;;;;;;;;;;;;;;;17.60;65.44;100806.72;5057666;28;1303;-95
2022/06/17 08:18:32;;;;;;;;;;;;;;;17.60;65.42;100797.75;5060471;28;1199;-96
2022/06/17 08:20:58;;;;;;;;;;;;;;;17.61;65.31;100802.09;5074983;28;3524;-95
2022/06/17 08:23:25;;;;;;;;;;;;;;;17.61;65.10;100796.66;5040184;28;3982;-96
2022/06/17 08:25:52;;;;;;;;;;;;;;;17.62;65.44;100787.44;5040320;28;1182;-96
2022/06/17 08:28:18;;;;;;;;;;;;;;;17.62;65.35;100788.25;5040275;28;1264;-96
2022/06/17 08:30:44;;;;;;;;;;;;;;;17.62;65.48;100785.50;5044965;28;1390;-96
2022/06/17 08:33:11;;;;;;;;;;;;;;;17.63;65.27;100789.88;5043260;28;1279;-96
2022/06/17 08:35:37;;;;;;;;;;;;;;;17.63;65.25;100778.97;5076788;28;1959;-96
2022/06/17 08:38:04;;;;;;;;;;;;;;;17.63;65.48;100781.69;5060359;28;1203;-95
2022/06/17 08:40:30;;;;;;;;;;;;;;;17.63;65.27;100787.16;5062057;28;4288;-96
2022/06/17 08:42:57;;;;;;;;;;;;;;;17.64;65.49;100777.88;5076387;28;1238;-96
2022/06/17 08:45:23;;;;;;;;;;;;;;;17.65;65.60;100784.19;5076544;28;1219;-96
2022/06/17 08:47:50;;;;;;;;;;;;;;;17.65;65.59;100776.00;5076344;28;1314;-96
2022/06/17 08:50:17;;;;;;;;;;;;;;;17.65;65.45;100771.38;5052049;28;2067;-96
2022/06/17 08:52:43;;;;;;;;;;;;;;;17.66;65.52;100769.47;5057659;28;1183;-96
2022/06/17 08:55:10;;;;;;;;;;;;;;;17.67;65.43;100774.63;5059582;28;1918;-96
2022/06/17 08:57:36;;;;;;;;;;;;;;;17.67;65.53;100771.09;5059360;28;1270;-96
2022/06/17 09:00:05;;;;;;;;;;;;;;;17.69;65.61;100774.38;5056253;28;1277;-96
2022/06/17 09:02:31;;;;;;;;;;;;;;;17.70;65.67;100770.56;5040112;28;1228;-96
2022/06/17 09:04:58;;;;;;;;;;;;;;;17.70;65.57;100773.28;5039587;28;1176;-96
2022/06/17 09:07:24;;;;;;;;;;;;;;;17.69;65.49;100772.47;5039493;28;1158;-96
2022/06/17 09:09:51;;;;;;;;;;;;;;;17.70;65.65;100768.66;5041417;28;1289;-96
2022/06/17 09:12:17;;;;;;;;;;;;;;;17.70;65.66;100767.84;5043666;28;1341;-96
2022/06/17 09:14:44;;;;;;;;;;;;;;;17.69;65.73;100764.31;5056007;28;1913;-96
2022/06/17 09:17:10;;;;;;;;;;;;;;;17.71;65.66;100761.34;5056088;28;1315;-96
2022/06/17 09:19:37;;;;;;;;;;;;;;;17.71;65.29;100753.16;5055857;28;1327;-96
2022/06/17 09:22:04;;;;;;;;;;;;;;;17.72;65.29;100765.69;5055752;28;1215;-96
2022/06/17 09:24:30;;;;;;;;;;;;;;;17.73;65.29;100758.34;5056060;28;1308;-96
2022/06/17 09:26:57;;;;;;;;;;;;;;;17.73;65.42;100761.88;5059018;28;1336;-96
2022/06/17 09:29:23;;;;;;;;;;;;;;;17.74;65.44;100762.72;5055706;28;1465;-96
2022/06/17 09:31:50;;;;;;;;;;;;;;;17.75;65.46;100761.63;5075595;28;1269;-96
2022/06/17 09:34:16;;;;;;;;;;;;;;;17.75;65.48;100757.00;5075068;28;1914;-96
2022/06/17 09:36:43;;;;;;;;;;;;;;;17.79;65.50;100760.03;5075859;28;1183;-96
2022/06/17 09:39:10;;;;;;;;;;;;;;;17.80;65.67;100761.69;5075749;28;1124;-96
2022/06/17 09:41:36;;;;;;;;;;;;;;;17.82;65.69;100763.06;5076049;28;1293;-96
2022/06/17 09:44:03;;;;;;;;;;;;;;;17.81;65.66;100768.78;5073808;28;2119;-96
2022/06/17 09:46:29;;;;;;;;;;;;;;;17.80;65.72;100762.50;5047022;28;1485;-96
2022/06/17 09:48:56;;;;;;;;;;;;;;;17.82;65.86;100751.34;5059151;28;1208;-96
2022/06/17 09:51:22;;;;;;;;;;;;;;;17.84;65.84;100758.16;5075940;28;1368;-96
2022/06/17 09:53:50;;;;;;;;;;;;;;;17.83;65.77;100759.28;5091579;28;1981;-96
2022/06/17 09:56:17;;;;;;;;;;;;;;;17.83;65.41;100753.00;5072005;28;1277;-96
2022/06/17 09:58:43;;;;;;;;;;;;;;;17.81;65.41;100739.63;5071872;28;1182;-96
2022/06/17 10:01:10;;;;;;;;;;;;;;;17.82;65.25;100740.44;5055223;28;1239;-96
2022/06/17 10:03:36;;;;;;;;;;;;;;;17.82;65.09;100743.16;5055516;28;1191;-96
2022/06/17 10:06:03;;;;;;;;;;;;;;;17.83;64.86;100753.00;5055107;28;1247;-96
2022/06/17 10:08:33;;;;;;;;;;;;;;;17.84;65.09;100749.19;5055079;28;1328;-96
2022/06/17 10:10:59;;;;;;;;;;;;;;;17.84;64.86;100754.63;5054714;28;1311;-96
2022/06/17 10:13:26;;;;;;;;;;;;;;;17.85;65.02;100750.81;5055020;28;1312;-96
2022/06/17 10:18:37;;;;;;;;;;;;;;;17.88;65.06;100750.28;5054482;28;1344;-96
2022/06/17 10:21:04;;;;;;;;;;;;;;;17.89;65.32;100757.41;5071340;28;1329;-96
2022/06/17 10:23:31;;;;;;;;;;;;;;;17.91;65.15;100749.75;5071421;28;1215;-96
2022/06/17 10:25:57;;;;;;;;;;;;;;;17.91;65.43;100744.31;5063595;28;1210;-96
2022/06/17 10:28:24;;;;;;;;;;;;;;;17.90;65.03;100757.13;5043217;28;1326;-96
2022/06/17 10:30:50;;;;;;;;;;;;;;;17.91;65.04;100745.16;5064204;28;1203;-96
2022/06/17 10:33:17;;;;;;;;;;;;;;;17.93;65.00;100734.78;5054283;28;1283;-95
2022/06/17 10:35:43;;;;;;;;;;;;;;;17.95;65.27;100737.25;5055296;28;1879;-96
2022/06/17 10:38:10;;;;;;;;;;;;;;;17.94;65.24;100735.59;5070767;28;1239;-96
2022/06/17 10:40:36;;;;;;;;;;;;;;;17.95;65.09;100731.00;5071062;28;1184;-96
2022/06/17 10:43:04;;;;;;;;;;;;;;;17.95;65.14;100726.38;5070599;28;1302;-96
2022/06/17 10:45:30;;;;;;;;;;;;;;;17.95;64.79;100726.38;5052122;28;1653;-96
2022/06/17 10:47:57;;;;;;;;;;;;;;;17.96;64.91;100724.47;5034349;28;1293;-96
2022/06/17 10:50:23;;;;;;;;;;;;;;;17.98;64.83;100714.13;5056400;28;1334;-96
2022/06/17 10:52:50;;;;;;;;;;;;;;;18.00;65.08;100712.78;5070756;28;1304;-96
2022/06/17 10:55:16;;;;;;;;;;;;;;;18.03;65.10;100712.25;5054560;28;1906;-96
2022/06/17 10:57:43;;;;;;;;;;;;;;;18.05;65.27;100711.97;5054217;28;1277;-96
2022/06/17 11:00:09;;;;;;;;;;;;;;;18.04;65.56;100705.69;5054570;28;1219;-96
2022/06/17 11:02:36;;;;;;;;;;;;;;;18.06;65.41;100700.81;5054309;28;1305;-96
2022/06/17 11:05:02;;;;;;;;;;;;;;;18.08;65.41;100698.63;5054448;28;1321;-96
2022/06/17 11:07:30;;;;;;;;;;;;;;;18.09;65.48;100700.28;5070439;28;1279;-96
2022/06/17 11:09:57;;;;;;;;;;;;;;;18.07;65.54;100694.25;5070965;28;1263;-96
2022/06/17 11:12:24;;;;;;;;;;;;;;;18.09;65.49;100694.00;5054179;28;1242;-96
2022/06/17 11:14:50;;;;;;;;;;;;;;;18.11;65.48;100708.16;5059447;28;1906;-96
2022/06/17 11:17:17;;;;;;;;;;;;;;;18.15;65.44;100701.13;5053780;28;1380;-96
2022/06/17 11:19:44;;;;;;;;;;;;;;;18.17;65.49;100701.66;5054471;28;1368;-96
2022/06/17 11:22:10;;;;;;;;;;;;;;;18.18;65.80;100706.03;5070739;28;1195;-96
2022/06/17 11:24:37;;;;;;;;;;;;;;;18.16;65.62;100706.28;5054059;28;1223;-96
2022/06/17 11:27:03;;;;;;;;;;;;;;;18.18;65.92;100703.31;5053605;28;1334;-96
2022/06/17 11:29:30;;;;;;;;;;;;;;;18.19;65.88;100707.66;5050619;28;1193;-96
2022/06/17 11:31:59;;;;;;;;;;;;;;;18.21;65.81;100701.97;5038659;28;1227;-96
2022/06/17 11:34:26;;;;;;;;;;;;;;;18.23;65.91;100694.31;5054161;28;1977;-96
2022/06/17 11:36:52;;;;;;;;;;;;;;;18.23;66.06;100689.69;5070694;28;1296;-96
2022/06/17 11:39:19;;;;;;;;;;;;;;;18.25;65.97;100689.44;5070434;28;1200;-96
2022/06/17 11:41:45;;;;;;;;;;;;;;;18.26;65.99;100688.34;5070712;28;1179;-96
2022/06/17 11:44:12;;;;;;;;;;;;;;;18.27;66.21;100685.34;5070719;28;1175;-96
2022/06/17 11:46:38;;;;;;;;;;;;;;;18.28;66.15;100675.25;5048458;28;2314;-96
2022/06/17 11:49:05;;;;;;;;;;;;;;;18.30;65.88;100673.09;5036556;28;1175;-96
2022/06/17 11:51:31;;;;;;;;;;;;;;;18.30;65.96;100682.09;5073920;28;1181;-96
2022/06/17 11:53:58;;;;;;;;;;;;;;;18.31;66.19;100670.09;5065973;28;2028;-96
2022/06/17 11:56:24;;;;;;;;;;;;;;;18.32;66.00;100669.03;5034550;28;1991;-96
2022/06/17 11:58:51;;;;;;;;;;;;;;;18.33;66.01;100676.09;5034718;28;1294;-96
2022/06/17 12:01:17;;;;;;;;;;;;;;;18.35;66.23;100676.66;5045596;28;1324;-96
2022/06/17 12:03:44;;;;;;;;;;;;;;;18.36;66.00;100680.19;5034285;28;1171;-96
2022/06/17 12:06:11;;;;;;;;;;;;;;;18.38;66.07;100687.03;5034145;28;1339;-96
2022/06/17 12:08:37;;;;;;;;;;;;;;;18.41;66.11;100687.56;5036781;28;1191;-96
2022/06/17 12:11:04;;;;;;;;;;;;;;;18.41;66.06;100696.56;5053810;28;1272;-96
2022/06/17 12:13:30;;;;;;;;;;;;;;;18.44;66.32;100696.00;5053845;28;1300;-96
2022/06/17 12:15:57;;;;;;;;;;;;;;;18.45;66.18;100694.13;5054213;28;1906;-96
2022/06/17 12:18:23;;;;;;;;;;;;;;;18.44;66.30;100685.09;5042333;28;1321;-96
2022/06/17 12:20:50;;;;;;;;;;;;;;;18.46;66.28;100680.22;5053776;28;1437;-96
2022/06/17 12:23:16;;;;;;;;;;;;;;;18.46;66.22;100676.66;5053896;28;1165;-96
2022/06/17 12:25:43;;;;;;;;;;;;;;;18.46;66.19;100685.66;5041424;28;1220;-96
2022/06/17 12:28:09;;;;;;;;;;;;;;;18.47;66.55;100678.31;5019660;28;1203;-96
2022/06/17 12:30:36;;;;;;;;;;;;;;;18.47;66.13;100681.88;5042592;28;1278;-96
2022/06/17 12:33:03;;;;;;;;;;;;;;;18.50;66.54;100677.75;5019133;28;1364;-96
2022/06/17 12:35:30;;;;;;;;;;;;;;;18.49;66.24;100666.03;5043364;28;1976;-96
2022/06/17 12:37:56;;;;;;;;;;;;;;;18.51;66.49;100668.50;5053304;28;1394;-96
2022/06/17 12:40:23;;;;;;;;;;;;;;;18.51;66.27;100671.25;5053383;28;1342;-96
2022/06/17 12:42:50;;;;;;;;;;;;;;;18.52;66.29;100662.78;5053263;28;1351;-96
2022/06/17 12:45:16;;;;;;;;;;;;;;;18.52;66.54;100667.41;5053788;28;1305;-96
2022/06/17 12:47:43;;;;;;;;;;;;;;;18.53;66.36;100664.44;5049126;28;5095;-96
2022/06/17 12:55:38;;;;;;;;;;;;;;;18.54;66.50;100668.78;5054291;28;1913;-96